This is the latest recevied weather packets stored in our database for station/object JI8TEY-15. If no packets are shown the sender has not sent any weather packets the latest 10 day(s).
| Time | Temp. | Humidity | Pressure | Rain* | Wind** | Luminosity | Snow |
|---|---|---|---|---|---|---|---|
| 1777301888 | 8.33° C | 88% | 1006 hPa | 0 mm | - | - | - |
| 1777298288 | 8.33° C | 89% | 1006 hPa | 0 mm | - | - | - |
| 1777294687 | 8.33° C | 90% | 1006 hPa | 0 mm | - | - | - |
| 1777291087 | 8.89° C | 89% | 1006 hPa | 0 mm | - | - | - |
| 1777287488 | 9.44° C | 88% | 1005 hPa | 0 mm | - | - | - |
| 1777283887 | 9.44° C | 88% | 1006 hPa | 0 mm | - | - | - |
| 1777280286 | 10.56° C | 87% | 1006 hPa | 0 mm | - | - | - |
| 1777276686 | 12.22° C | 78% | 1006 hPa | 0 mm | - | - | - |
| 1777273087 | 14.44° C | 56% | 1006 hPa | 0 mm | - | - | - |
| 1777269487 | 16.11° C | 55% | 1005 hPa | 0 mm | - | - | - |
| 1777265886 | 17.22° C | 55% | 1006 hPa | 0 mm | - | - | - |
| 1777262286 | 18.33° C | 54% | 1006 hPa | 0 mm | - | - | - |
| 1777258687 | 18.89° C | 54% | 1006 hPa | 0 mm | - | - | - |
| 1777255086 | 17.22° C | 55% | 1006 hPa | 0 mm | - | - | - |
| 1777251487 | 16.67° C | 55% | 1007 hPa | 0 mm | - | - | - |
| 1777247886 | 16.67° C | 55% | 1008 hPa | 0 mm | - | - | - |
| 1777244287 | 15.56° C | 56% | 1008 hPa | 0 mm | - | - | - |
| 1777240688 | 12.78° C | 78% | 1008 hPa | 0 mm | - | - | - |
| 1777237086 | 10° C | 91% | 1009 hPa | 0 mm | - | - | - |
| 1777233487 | 8.33° C | 93% | 1008 hPa | 0 mm | - | - | - |
| 1777229887 | 8.33° C | 94% | 1008 hPa | 0 mm | - | - | - |
| 1777226287 | 7.78° C | 92% | 1010 hPa | 0 mm | - | - | - |
| 1777222686 | 8.33° C | 91% | 1010 hPa | 0 mm | - | - | - |
| 1777219088 | 8.33° C | 89% | 1010 hPa | 0 mm | - | - | - |
| 1777215488 | 8.33° C | 88% | 1011 hPa | 0 mm | - | - | - |
* Rain latest hour (hover to see other rain measurements)
** Current wind speed in m/s (hover to see current wind gust speed)